createdAt,value
2022-11-11T00:00:01.209Z,101089.91
2022-11-11T00:02:28.911Z,101094.44
2022-11-11T00:04:56.601Z,101099.13
2022-11-11T00:07:24.166Z,101106.31
2022-11-11T00:09:51.816Z,101120.66
2022-11-11T00:12:25.074Z,101123.50
2022-11-11T00:14:54.901Z,101133.19
2022-11-11T00:17:40.141Z,101147.94
2022-11-11T00:20:25.025Z,101151.00
2022-11-11T00:23:11.387Z,101154.06
2022-11-11T00:25:39.056Z,101150.22
2022-11-11T00:28:06.793Z,101148.22
2022-11-11T00:30:34.437Z,101144.69
2022-11-11T00:33:02.109Z,101135.75
2022-11-11T00:35:47.122Z,101130.44
2022-11-11T00:38:36.176Z,101134.03
2022-11-11T00:41:03.835Z,101133.19
2022-11-11T00:43:31.498Z,101137.75
2022-11-11T00:46:19.548Z,101128.91
2022-11-11T00:49:04.572Z,101138.53
2022-11-11T00:51:32.238Z,101136.72
2022-11-11T00:53:59.834Z,101136.72
2022-11-11T00:56:27.473Z,101129.47
2022-11-11T00:58:55.469Z,101134.81
2022-11-11T01:01:23.125Z,101138.41
2022-11-11T01:03:50.912Z,101133.19
2022-11-11T01:06:18.594Z,101128.78
2022-11-11T01:08:46.551Z,101133.28
2022-11-11T01:11:14.363Z,101141.28
2022-11-11T01:13:42.112Z,101140.53
2022-11-11T01:16:09.713Z,101137.84
2022-11-11T01:18:37.374Z,101139.56
2022-11-11T01:21:05.756Z,101138.69
2022-11-11T01:23:33.537Z,101134.13
2022-11-11T01:26:01.115Z,101146.41
2022-11-11T01:28:30.201Z,101145.38
2022-11-11T01:30:57.783Z,101149.66
2022-11-11T01:33:25.711Z,101141.66
2022-11-11T01:35:53.466Z,101155.81
2022-11-11T01:38:21.252Z,101158.47
2022-11-11T01:40:49.897Z,101153.06
2022-11-11T01:43:17.825Z,101148.63
2022-11-11T01:45:45.832Z,101154.91
2022-11-11T01:48:33.917Z,101166.22
2022-11-11T01:51:02.086Z,101164.31
2022-11-11T01:53:29.781Z,101163.38
2022-11-11T01:55:57.775Z,101164.31
2022-11-11T01:58:25.399Z,101155.38
2022-11-11T02:00:52.987Z,101155.38
2022-11-11T02:03:21.067Z,101152.78
2022-11-11T02:05:47.934Z,101148.50
2022-11-11T02:08:16.067Z,101152.13
2022-11-11T02:10:43.783Z,101154.91
2022-11-11T02:13:28.905Z,101152.13
2022-11-11T02:15:58.296Z,101160.72
2022-11-11T02:18:26.426Z,101161.47
2022-11-11T02:20:54.027Z,101155.19
2022-11-11T02:23:22.627Z,101156.06
2022-11-11T02:25:50.476Z,101161.19
2022-11-11T02:28:18.164Z,101162.06
2022-11-11T02:30:46.285Z,101168.13
2022-11-11T02:33:13.969Z,101171.75
2022-11-11T02:35:41.668Z,101169.84
2022-11-11T02:38:09.531Z,101176.13
2022-11-11T02:40:38.177Z,101181.47
2022-11-11T02:43:06.167Z,101187.75
2022-11-11T02:45:34.162Z,101186.88
2022-11-11T02:48:01.951Z,101181.66
2022-11-11T02:50:29.588Z,101187.16
2022-11-11T02:52:58.867Z,101181.81
2022-11-11T02:55:27.037Z,101177.56
2022-11-11T02:57:54.748Z,101180.31
2022-11-11T03:00:22.554Z,101169.81
2022-11-11T03:02:50.197Z,101164.69
2022-11-11T03:05:18.758Z,101169.34
2022-11-11T03:07:46.835Z,101168.66
2022-11-11T03:10:14.655Z,101162.50
2022-11-11T03:12:42.489Z,101164.28
2022-11-11T03:15:10.171Z,101166.94
2022-11-11T03:17:39.997Z,101159.91
2022-11-11T03:20:25.403Z,101152.75
2022-11-11T03:22:54.740Z,101156.31
2022-11-11T03:25:41.151Z,101149.94
2022-11-11T03:28:09.015Z,101148.13
2022-11-11T03:30:36.980Z,101142.91
2022-11-11T03:33:04.580Z,101128.72
2022-11-11T03:35:32.131Z,101138.63
2022-11-11T03:38:16.836Z,101142.22
2022-11-11T03:40:44.797Z,101148.59
2022-11-11T03:43:13.442Z,101148.75
2022-11-11T03:45:41.068Z,101146.28
2022-11-11T03:48:08.645Z,101142.78
2022-11-11T03:50:36.228Z,101138.28
2022-11-11T03:53:04.186Z,101125.75
2022-11-11T03:55:32.383Z,101131.75
2022-11-11T03:57:59.936Z,101136.13
2022-11-11T04:00:27.583Z,101129.88
2022-11-11T04:03:12.832Z,101130.69
2022-11-11T04:05:57.844Z,101134.31
2022-11-11T04:08:42.776Z,101130.63
2022-11-11T04:11:10.398Z,101143.94
2022-11-11T04:13:55.674Z,101141.44
2022-11-11T04:16:23.239Z,101148.66
2022-11-11T04:19:08.051Z,101147.03
2022-11-11T04:21:45.165Z,101152.28
2022-11-11T04:24:26.525Z,101153.25
2022-11-11T04:26:54.134Z,101149.81
2022-11-11T04:29:30.058Z,101157.00
2022-11-11T04:32:15.096Z,101160.63
2022-11-11T04:34:45.175Z,101167.00
2022-11-11T04:37:12.746Z,101168.06
2022-11-11T04:39:57.936Z,101171.63
2022-11-11T04:42:25.492Z,101160.97
2022-11-11T04:45:10.425Z,101168.81
2022-11-11T04:47:38.034Z,101166.16
2022-11-11T04:50:07.353Z,101164.25
2022-11-11T04:52:35.324Z,101167.00
2022-11-11T04:55:29.402Z,101166.22
2022-11-11T04:57:58.516Z,101171.63
2022-11-11T05:00:30.521Z,101164.03
2022-11-11T05:03:16.336Z,101168.75
2022-11-11T05:06:01.655Z,101154.97
2022-11-11T05:08:45.805Z,101153.41
2022-11-11T05:11:13.406Z,101154.53
2022-11-11T05:13:58.458Z,101155.53
2022-11-11T05:16:43.557Z,101157.19
2022-11-11T05:19:43.108Z,101150.97
2022-11-11T05:22:10.808Z,101146.38
2022-11-11T05:24:55.743Z,101146.28
2022-11-11T05:27:23.689Z,101150.81
2022-11-11T05:29:51.262Z,101149.91
2022-11-11T05:32:22.370Z,101154.53
2022-11-11T05:34:50.055Z,101162.72
2022-11-11T05:37:17.658Z,101158.63
2022-11-11T05:39:45.629Z,101169.97
2022-11-11T05:42:13.218Z,101167.22
2022-11-11T05:44:42.197Z,101175.13
2022-11-11T05:47:09.825Z,101167.97
2022-11-11T05:49:37.415Z,101173.22
2022-11-11T05:52:04.997Z,101171.31
2022-11-11T05:54:32.922Z,101182.69
2022-11-11T05:57:00.740Z,101182.53
2022-11-11T05:59:28.359Z,101185.25
2022-11-11T06:01:56.153Z,101185.25
2022-11-11T06:04:24.198Z,101192.38
2022-11-11T06:06:51.826Z,101191.63
2022-11-11T06:09:20.695Z,101187.38
2022-11-11T06:11:48.283Z,101199.06
2022-11-11T06:14:15.941Z,101203.44
2022-11-11T06:16:44.297Z,101197.25
2022-11-11T06:19:11.868Z,101199.75
2022-11-11T06:21:53.332Z,101207.75
2022-11-11T06:24:26.001Z,101209.53
2022-11-11T06:26:54.367Z,101207.81
2022-11-11T06:29:22.080Z,101221.13
2022-11-11T06:31:49.741Z,101214.94
2022-11-11T06:34:18.484Z,101224.72
2022-11-11T06:36:46.460Z,101222.84
2022-11-11T06:39:14.504Z,101220.16
2022-11-11T06:41:42.060Z,101228.78
2022-11-11T06:44:09.762Z,101224.16
2022-11-11T06:46:37.389Z,101225.59
2022-11-11T06:49:05.002Z,101234.34
2022-11-11T06:51:33.042Z,101240.28
2022-11-11T06:54:00.652Z,101240.09
2022-11-11T06:56:28.338Z,101241.66
2022-11-11T06:58:56.304Z,101255.53
2022-11-11T07:01:23.977Z,101261.66
2022-11-11T07:03:51.981Z,101254.41
2022-11-11T07:06:19.695Z,101264.13
2022-11-11T07:08:47.280Z,101265.00
2022-11-11T07:11:19.210Z,101262.13
2022-11-11T07:13:47.217Z,101264.59
2022-11-11T07:16:15.342Z,101266.25
2022-11-11T07:18:43.084Z,101267.19
2022-11-11T07:21:11.210Z,101275.19
2022-11-11T07:23:38.924Z,101275.19
2022-11-11T07:26:06.523Z,101270.81
2022-11-11T07:28:34.695Z,101270.03
2022-11-11T07:31:02.341Z,101277.25
2022-11-11T07:33:30.030Z,101276.56
2022-11-11T07:35:57.840Z,101280.16
2022-11-11T07:38:25.927Z,101279.41
2022-11-11T07:40:54.203Z,101276.66
2022-11-11T07:43:22.390Z,101276.66
2022-11-11T07:45:50.176Z,101264.19
2022-11-11T07:48:19.445Z,101255.19
2022-11-11T07:50:47.323Z,101266.59
2022-11-11T07:53:15.307Z,101278.03
2022-11-11T07:55:43.030Z,101281.47
2022-11-11T07:58:10.861Z,101275.19
2022-11-11T08:00:39.658Z,101276.88
2022-11-11T08:03:08.874Z,101282.91
2022-11-11T08:05:37.434Z,101288.06
2022-11-11T08:08:05.676Z,101293.97
2022-11-11T08:10:33.508Z,101288.38
2022-11-11T08:13:19.026Z,101296.75
2022-11-11T08:15:47.643Z,101292.81
2022-11-11T08:18:15.405Z,101301.19
2022-11-11T08:20:46.462Z,101295.50
2022-11-11T08:26:10.438Z,101299.75
2022-11-11T08:28:38.203Z,101301.88
2022-11-11T08:31:06.152Z,101293.38
2022-11-11T08:33:44.407Z,101289.41
2022-11-11T08:36:20.392Z,101288.94
2022-11-11T08:38:48.531Z,101278.75
2022-11-11T08:41:16.594Z,101288.94
2022-11-11T08:43:44.360Z,101282.19
2022-11-11T08:46:16.088Z,101283.44
2022-11-11T08:48:43.986Z,101284.78
2022-11-11T08:51:12.172Z,101284.28
2022-11-11T08:53:40.137Z,101283.69
2022-11-11T08:56:07.884Z,101292.09
2022-11-11T08:58:37.552Z,101289.78
2022-11-11T09:01:05.545Z,101287.56
2022-11-11T09:03:33.486Z,101284.50
2022-11-11T09:06:01.302Z,101283.16
2022-11-11T09:08:29.410Z,101286.25
2022-11-11T09:10:58.142Z,101293.88
2022-11-11T09:13:26.324Z,101296.03
2022-11-11T09:15:54.713Z,101295.53
2022-11-11T09:18:22.601Z,101305.72
2022-11-11T09:20:50.389Z,101299.78
2022-11-11T09:23:18.742Z,101297.44
2022-11-11T09:25:46.563Z,101298.75
2022-11-11T09:28:14.671Z,101303.69
2022-11-11T09:30:42.826Z,101295.25
2022-11-11T09:33:12.674Z,101304.56
2022-11-11T09:35:42.488Z,101299.56
2022-11-11T09:38:10.461Z,101306.09
2022-11-11T09:40:38.212Z,101306.34
2022-11-11T09:43:06.050Z,101307.16
2022-11-11T09:45:33.851Z,101304.16
2022-11-11T09:48:05.139Z,101294.75
2022-11-11T09:50:36.880Z,101294.38
2022-11-11T09:53:04.719Z,101292.31
2022-11-11T09:55:32.467Z,101298.03
2022-11-11T09:58:01.449Z,101298.13
2022-11-11T10:00:30.446Z,101296.91
2022-11-11T10:02:58.369Z,101305.81
2022-11-11T10:05:26.349Z,101305.88
2022-11-11T10:07:54.180Z,101308.88
2022-11-11T10:10:22.196Z,101306.47
2022-11-11T10:12:50.750Z,101307.41
2022-11-11T10:15:18.696Z,101310.84
2022-11-11T10:17:46.573Z,101314.25
2022-11-11T10:20:15.527Z,101319.63
2022-11-11T10:22:43.375Z,101323.66
2022-11-11T10:25:12.348Z,101322.44
2022-11-11T10:27:40.284Z,101317.94
2022-11-11T10:30:08.212Z,101322.94
2022-11-11T10:32:36.446Z,101320.00
2022-11-11T10:35:04.431Z,101317.72
2022-11-11T10:37:33.084Z,101317.22
2022-11-11T10:40:00.927Z,101322.78
2022-11-11T10:42:29.130Z,101325.38
2022-11-11T10:45:00.907Z,101323.56
2022-11-11T10:47:31.777Z,101329.63
2022-11-11T10:50:01.383Z,101332.41
2022-11-11T10:52:29.318Z,101330.13
2022-11-11T10:54:57.386Z,101331.94
2022-11-11T10:57:25.204Z,101332.50
2022-11-11T10:59:53.835Z,101337.69
2022-11-11T11:02:27.210Z,101337.75
2022-11-11T11:04:55.073Z,101338.78
2022-11-11T11:07:22.991Z,101337.72
2022-11-11T11:09:50.915Z,101329.94
2022-11-11T11:12:18.767Z,101321.03
2022-11-11T11:14:50.649Z,101319.22
2022-11-11T11:17:18.661Z,101327.81
2022-11-11T11:19:46.438Z,101328.31
2022-11-11T11:22:14.247Z,101320.63
2022-11-11T11:24:44.112Z,101324.38
2022-11-11T11:27:14.393Z,101312.31
2022-11-11T11:29:42.702Z,101319.63
2022-11-11T11:32:10.519Z,101315.09
2022-11-11T11:34:38.312Z,101320.09
2022-11-11T11:37:06.594Z,101313.41
2022-11-11T11:39:36.837Z,101305.94
2022-11-11T11:42:04.693Z,101309.38
2022-11-11T11:44:32.718Z,101306.53
2022-11-11T11:47:00.629Z,101306.66
2022-11-11T11:49:28.435Z,101309.81
2022-11-11T11:51:56.429Z,101299.31
2022-11-11T11:54:24.664Z,101307.38
2022-11-11T11:56:52.385Z,101296.81
2022-11-11T11:59:20.552Z,101296.91
2022-11-11T12:01:48.332Z,101293.00
2022-11-11T12:04:16.559Z,101299.22
2022-11-11T12:06:44.414Z,101294.13
2022-11-11T12:09:12.375Z,101288.97
2022-11-11T12:11:40.194Z,101290.72
2022-11-11T12:14:08.056Z,101296.66
2022-11-11T12:16:43.596Z,101295.53
2022-11-11T12:19:12.060Z,101291.88
2022-11-11T12:21:40.076Z,101283.69
2022-11-11T12:24:08.147Z,101290.06
2022-11-11T12:26:38.731Z,101298.25
2022-11-11T12:29:06.499Z,101295.81
2022-11-11T12:31:34.382Z,101302.19
2022-11-11T12:34:02.284Z,101297.78
2022-11-11T12:36:30.260Z,101294.34
2022-11-11T12:38:59.282Z,101297.03
2022-11-11T12:41:27.356Z,101288.72
2022-11-11T12:43:55.518Z,101287.63
2022-11-11T12:46:23.376Z,101292.13
2022-11-11T12:48:51.336Z,101285.06
2022-11-11T12:51:21.583Z,101284.28
2022-11-11T12:53:49.648Z,101284.97
2022-11-11T12:56:17.675Z,101276.97
2022-11-11T12:58:45.588Z,101273.13
2022-11-11T13:01:13.473Z,101276.81
2022-11-11T13:03:42.869Z,101273.34
2022-11-11T13:06:10.867Z,101274.16
2022-11-11T13:08:38.564Z,101265.13
2022-11-11T13:11:06.606Z,101262.63
2022-11-11T13:13:34.306Z,101263.81
2022-11-11T13:16:02.729Z,101258.59
2022-11-11T13:18:30.678Z,101253.44
2022-11-11T13:20:58.600Z,101258.44
2022-11-11T13:23:26.787Z,101260.03
2022-11-11T13:26:00.322Z,101260.03
2022-11-11T13:28:29.885Z,101254.06
2022-11-11T13:30:57.923Z,101262.97
2022-11-11T13:33:25.998Z,101262.22
2022-11-11T13:35:54.200Z,101268.41
2022-11-11T13:38:22.093Z,101262.09
2022-11-11T13:40:52.555Z,101264.09
2022-11-11T13:43:20.438Z,101262.09
2022-11-11T13:45:48.399Z,101261.28
2022-11-11T13:48:16.219Z,101266.03
2022-11-11T13:50:44.619Z,101261.09
2022-11-11T13:53:13.344Z,101260.16
2022-11-11T13:55:41.264Z,101257.91
2022-11-11T13:58:09.137Z,101257.66
2022-11-11T14:00:37.208Z,101258.41
2022-11-11T14:03:05.070Z,101268.97
2022-11-11T14:05:33.383Z,101263.16
2022-11-11T14:08:01.372Z,101268.16
2022-11-11T14:10:29.222Z,101268.00
2022-11-11T14:12:57.452Z,101268.72
2022-11-11T14:15:25.459Z,101268.56
2022-11-11T14:17:53.648Z,101273.53
2022-11-11T14:20:21.535Z,101279.53
2022-11-11T14:22:49.502Z,101269.34
2022-11-11T14:25:17.369Z,101275.63
2022-11-11T14:27:45.415Z,101278.06
2022-11-11T14:30:13.860Z,101279.91
2022-11-11T14:32:41.687Z,101278.31
2022-11-11T14:35:10.093Z,101284.28
2022-11-11T14:37:39.002Z,101281.47
2022-11-11T14:40:06.879Z,101284.91
2022-11-11T14:42:35.178Z,101285.91
2022-11-11T14:45:03.209Z,101281.56
2022-11-11T14:47:31.013Z,101280.28
2022-11-11T14:49:59.873Z,101285.78
2022-11-11T14:52:27.741Z,101288.56
2022-11-11T14:54:55.982Z,101296.88
2022-11-11T14:57:24.220Z,101303.19
2022-11-11T14:59:52.102Z,101303.88
2022-11-11T15:02:20.314Z,101303.03
2022-11-11T15:04:48.101Z,101310.72
2022-11-11T15:07:18.971Z,101307.41
2022-11-11T15:09:46.843Z,101314.78
2022-11-11T15:12:14.819Z,101308.53
2022-11-11T15:14:42.775Z,101305.47
2022-11-11T15:17:10.839Z,101313.78
2022-11-11T15:19:44.501Z,101310.44
2022-11-11T15:22:12.262Z,101309.25
2022-11-11T15:24:40.066Z,101313.44
2022-11-11T15:27:08.274Z,101308.63
2022-11-11T15:29:36.212Z,101306.78
2022-11-11T15:32:04.427Z,101309.34
2022-11-11T15:34:32.286Z,101304.75
2022-11-11T15:37:00.111Z,101306.28
2022-11-11T15:39:28.068Z,101318.31
2022-11-11T15:41:55.951Z,101313.41
2022-11-11T15:44:25.334Z,101319.06
2022-11-11T15:46:53.770Z,101315.81
2022-11-11T15:49:23.272Z,101322.22
2022-11-11T15:51:51.149Z,101316.50
2022-11-11T15:54:18.964Z,101319.16
2022-11-11T15:56:47.266Z,101311.91
2022-11-11T15:59:16.233Z,101309.44
2022-11-11T16:01:44.439Z,101310.38
2022-11-11T16:04:33.963Z,101309.72
2022-11-11T16:07:00.877Z,101312.53
2022-11-11T16:09:28.787Z,101304.69
2022-11-11T16:11:56.633Z,101304.69
2022-11-11T16:14:25.373Z,101306.41
2022-11-11T16:16:53.408Z,101308.97
2022-11-11T16:19:21.731Z,101306.69
2022-11-11T16:21:50.186Z,101311.19
2022-11-11T16:24:18.252Z,101305.88
2022-11-11T16:26:46.230Z,101309.56
2022-11-11T16:29:14.457Z,101307.88
2022-11-11T16:31:45.773Z,101305.03
2022-11-11T16:34:13.819Z,101305.63
2022-11-11T16:36:41.690Z,101306.28
2022-11-11T16:39:09.663Z,101307.84
2022-11-11T16:41:41.782Z,101308.59
2022-11-11T16:44:17.794Z,101309.25
2022-11-11T16:46:45.856Z,101311.78
2022-11-11T16:49:13.886Z,101309.78
2022-11-11T16:51:41.950Z,101315.88
2022-11-11T16:54:09.764Z,101303.19
2022-11-11T16:56:38.043Z,101316.13
2022-11-11T16:59:06.152Z,101310.47
2022-11-11T17:01:33.948Z,101314.53
2022-11-11T17:04:01.941Z,101313.34
2022-11-11T17:06:30.405Z,101312.06
2022-11-11T17:09:01.556Z,101310.06
2022-11-11T17:11:29.513Z,101314.78
2022-11-11T17:13:57.457Z,101314.28
2022-11-11T17:16:25.439Z,101320.91
2022-11-11T17:18:53.433Z,101323.16
2022-11-11T17:21:23.512Z,101315.56
2022-11-11T17:23:51.441Z,101326.66
2022-11-11T17:26:19.298Z,101324.34
2022-11-11T17:28:47.576Z,101326.38
2022-11-11T17:31:16.577Z,101330.16
2022-11-11T17:33:46.905Z,101327.63
2022-11-11T17:36:14.858Z,101326.19
2022-11-11T17:38:42.700Z,101327.44
2022-11-11T17:41:11.932Z,101327.00
2022-11-11T17:43:40.040Z,101332.59
2022-11-11T17:46:08.301Z,101339.09
2022-11-11T17:48:36.278Z,101335.81
2022-11-11T17:51:04.537Z,101339.56
2022-11-11T17:53:32.372Z,101338.78
2022-11-11T17:56:00.260Z,101332.78
2022-11-11T17:58:30.132Z,101334.66
2022-11-11T18:00:58.072Z,101333.97
2022-11-11T18:03:26.100Z,101332.31
2022-11-11T18:05:54.408Z,101330.78
2022-11-11T18:08:22.186Z,101336.34
2022-11-11T18:10:51.401Z,101339.31
2022-11-11T18:13:19.902Z,101335.09
2022-11-11T18:15:47.928Z,101340.81
2022-11-11T18:18:15.788Z,101342.84
2022-11-11T18:20:43.742Z,101355.34
2022-11-11T18:23:14.438Z,101357.84
2022-11-11T18:25:42.513Z,101364.03
2022-11-11T18:28:10.697Z,101359.72
2022-11-11T18:30:38.663Z,101366.22
2022-11-11T18:33:06.928Z,101374.56
2022-11-11T18:35:40.188Z,101372.13
2022-11-11T18:38:08.029Z,101367.13
2022-11-11T18:40:35.966Z,101370.06
2022-11-11T18:43:04.038Z,101378.22
2022-11-11T18:45:32.001Z,101371.34
2022-11-11T18:47:59.984Z,101388.28
2022-11-11T18:50:28.036Z,101382.16
2022-11-11T18:52:56.038Z,101382.16
2022-11-11T18:55:23.858Z,101383.22
2022-11-11T18:57:52.417Z,101378.81
2022-11-11T19:00:20.993Z,101370.06
2022-11-11T19:02:48.943Z,101371.00
2022-11-11T19:05:16.941Z,101374.75
2022-11-11T19:07:44.857Z,101374.41
2022-11-11T19:10:12.724Z,101373.19
2022-11-11T19:12:43.490Z,101371.22
2022-11-11T19:15:11.522Z,101370.69
2022-11-11T19:17:39.409Z,101375.47
2022-11-11T19:20:07.804Z,101381.84
2022-11-11T19:22:36.219Z,101383.84
2022-11-11T19:25:07.085Z,101386.66
2022-11-11T19:27:35.119Z,101384.00
2022-11-11T19:30:02.925Z,101377.03
2022-11-11T19:32:30.784Z,101381.50
2022-11-11T19:34:58.793Z,101386.06
2022-11-11T19:37:28.300Z,101387.06
2022-11-11T19:39:56.170Z,101389.78
2022-11-11T19:42:24.158Z,101385.41
2022-11-11T19:44:52.019Z,101396.19
2022-11-11T19:47:20.119Z,101390.16
2022-11-11T19:49:48.438Z,101381.53
2022-11-11T19:52:16.283Z,101389.63
2022-11-11T19:54:44.144Z,101386.09
2022-11-11T19:57:12.178Z,101385.22
2022-11-11T19:59:40.138Z,101391.47
2022-11-11T20:02:12.726Z,101387.09
2022-11-11T20:04:41.087Z,101388.09
2022-11-11T20:07:09.154Z,101391.81
2022-11-11T20:09:37.236Z,101394.59
2022-11-11T20:12:05.105Z,101390.31
2022-11-11T20:14:35.216Z,101385.13
2022-11-11T20:17:03.302Z,101380.97
2022-11-11T20:19:31.057Z,101393.50
2022-11-11T20:21:58.853Z,101392.69
2022-11-11T20:24:27.188Z,101387.47
2022-11-11T20:26:58.319Z,101393.69
2022-11-11T20:29:26.236Z,101390.47
2022-11-11T20:31:54.531Z,101384.53
2022-11-11T20:34:22.332Z,101381.31
2022-11-11T20:36:50.168Z,101385.16
2022-11-11T20:39:19.621Z,101389.72
2022-11-11T20:41:47.510Z,101383.72
2022-11-11T20:44:15.483Z,101389.16
2022-11-11T20:46:43.882Z,101396.38
2022-11-11T20:49:11.654Z,101391.16
2022-11-11T20:51:42.834Z,101386.81
2022-11-11T20:54:10.702Z,101391.28
2022-11-11T20:56:39.109Z,101386.00
2022-11-11T20:59:07.032Z,101387.66
2022-11-11T21:01:35.795Z,101390.16
2022-11-11T21:04:04.092Z,101395.41
2022-11-11T21:06:31.922Z,101395.44
2022-11-11T21:08:59.872Z,101404.28
2022-11-11T21:11:27.715Z,101400.88
2022-11-11T21:13:55.580Z,101408.00
2022-11-11T21:16:25.060Z,101406.28
2022-11-11T21:18:53.022Z,101407.22
2022-11-11T21:21:20.926Z,101399.34
2022-11-11T21:23:48.949Z,101396.88
2022-11-11T21:26:16.893Z,101390.78
2022-11-11T21:28:45.860Z,101398.06
2022-11-11T21:31:13.929Z,101395.50
2022-11-11T21:33:41.824Z,101399.91
2022-11-11T21:36:09.784Z,101395.53
2022-11-11T21:38:37.705Z,101399.19
2022-11-11T21:41:06.051Z,101401.03
2022-11-11T21:43:33.831Z,101396.72
2022-11-11T21:46:02.399Z,101403.88
2022-11-11T21:48:30.537Z,101408.38
2022-11-11T21:50:58.942Z,101405.81
2022-11-11T21:53:27.680Z,101413.75
2022-11-11T21:55:55.514Z,101418.25
2022-11-11T21:58:23.647Z,101413.94
2022-11-11T22:00:51.729Z,101413.16
2022-11-11T22:03:19.491Z,101407.13
2022-11-11T22:05:49.041Z,101410.00
2022-11-11T22:08:16.987Z,101416.28
2022-11-11T22:10:44.868Z,101419.97
2022-11-11T22:13:13.260Z,101420.97
2022-11-11T22:15:41.156Z,101425.38
2022-11-11T22:18:09.593Z,101422.81
2022-11-11T22:20:37.396Z,101422.91
2022-11-11T22:23:05.421Z,101424.75
2022-11-11T22:25:33.141Z,101420.38
2022-11-11T22:28:00.804Z,101420.38
2022-11-11T22:30:30.617Z,101422.06
2022-11-11T22:32:58.500Z,101422.91
2022-11-11T22:35:26.603Z,101426.44
2022-11-11T22:37:54.519Z,101428.19
2022-11-11T22:40:22.270Z,101423.84
2022-11-11T22:42:51.770Z,101421.22
2022-11-11T22:45:19.546Z,101423.97
2022-11-11T22:47:47.310Z,101416.91
2022-11-11T22:50:14.991Z,101412.63
2022-11-11T22:52:43.006Z,101411.81
2022-11-11T22:55:12.429Z,101421.59
2022-11-11T22:57:40.627Z,101409.34
2022-11-11T23:00:08.497Z,101418.34
2022-11-11T23:02:36.227Z,101418.44
2022-11-11T23:05:03.986Z,101420.28
2022-11-11T23:07:32.168Z,101422.13
2022-11-11T23:09:59.897Z,101416.88
2022-11-11T23:12:27.655Z,101420.50
2022-11-11T23:14:55.395Z,101418.84
2022-11-11T23:17:23.158Z,101411.06
2022-11-11T23:19:51.634Z,101416.50
2022-11-11T23:22:19.372Z,101408.69
2022-11-11T23:24:47.010Z,101412.34
2022-11-11T23:27:14.704Z,101410.72
2022-11-11T23:29:42.499Z,101416.09
2022-11-11T23:32:10.716Z,101412.66
2022-11-11T23:34:38.519Z,101426.69
2022-11-11T23:37:08.169Z,101416.13
2022-11-11T23:39:36.013Z,101414.38
2022-11-11T23:42:03.663Z,101423.22
2022-11-11T23:44:32.944Z,101422.34
2022-11-11T23:47:00.643Z,101425.97
2022-11-11T23:49:28.428Z,101421.72
2022-11-11T23:51:56.073Z,101431.53
2022-11-11T23:54:23.763Z,101417.69
2022-11-11T23:56:52.625Z,101419.59
2022-11-11T23:59:20.375Z,101422.44
